x

Monterey - 27nm Wnw Of Monterey, Ca (46042) Wave Buoy

6:50pm - Fri 18th Aug 2017 All times are PDT. -7 hours from GMT.

  • Sig Wave height 5.9ft
  • Swell Direction
  • Peak Period 10s
  • Average Period 8s
  • Wind
    4mph, 4mph gusts
  • Sea Temp 61°f
  • Air Temp 60°f
  • Sea Pressure 1014.8mb
  • Monterey - 27nm Wnw Of Monterey, Ca
  • Monterey - 27nm Wnw Of Monterey, Ca

More Historic Weather Station data

Upgrade to MSW Pro to gain access to the past 30 days of data for over 8000 Wavebouys and Weather Stations around the globe.

Join

Comparision Forecast

View Surf forecast
   
Fri 08/18 6:50pm 6ft 10s 8s 4 4 mph 1014.8mb 61f 60f
5:50pm 5.5ft 12s 9s 7 9 mph 1015.2mb 60f 61f
4:50pm 5.5ft 11s 8s 7 9 mph 1015.4mb 60f 61f
2:50pm 5.5ft 11s 8s 7 9 mph 1016.1mb 62f 61f
1:50pm 5.5ft 16s 9s 4 9 mph 1016.5mb 62f 61f
12:50pm 5.5ft 9s 8s 7 9 mph 1016.6mb 61f 60f
11:50am 6ft 16s 9s 7 9 mph 1016.8mb 61f 60f
10:50am 5ft 11s 9s 4 7 mph 1016.9mb 61f 61f
9:50am 5ft 14s 9s  -  2 mph 1016.9mb 60f 60f
8:50am 5ft 9s 9s 2 4 mph 1016.7mb 60f 60f
7:50am 5ft 9s 8s 4 4 mph 1016.3mb 60f 60f
6:50am 5ft 16s 9s 7 9 mph 1016.1mb 60f 60f
5:50am 5.5ft 10s 8s 4 7 mph 1016mb 60f 60f
4:50am 5.5ft 10s 8s 2 4 mph 1015.9mb 60f 60f
3:50am 6ft 10s 9s 2 4 mph 1016mb 60f 59f
2:50am 5ft 9s 8s  -  2 mph 1016mb 60f 59f
1:50am 5ft 9s 8s 2 2 mph 1016.5mb 60f 59f
12:50am 6ft 9s 8s 2 2 mph 1016.7mb 60f 60f
Thu 08/17 11:50pm 6ft 10s 9s  -  2 mph 1016.6mb 60f 60f
10:50pm 6ft 10s 9s 4 4 mph 1016.5mb 60f 60f
9:50pm 5.5ft 9s 9s  -  2 mph 1016.7mb 60f 60f
8:50pm 6ft 9s 9s  -  2 mph 1015.9mb 61f 61f
7:50pm 5ft 16s 9s 2 2 mph 1015.7mb 61f 61f
6:50pm 5ft 9s 8s 4 4 mph 1015.5mb 62f 63f
5:50pm 5ft 9s 8s 2 4 mph 1015.5mb 62f 63f
4:50pm 6ft 10s 8s 2 2 mph 1015.8mb 62f 62f
3:50pm 6ft 10s 8s 4 7 mph 1016.3mb 62f 62f
2:50pm 6ft 10s 8s 4 4 mph 1017mb 62f 62f
1:50pm 7.5ft 10s 9s 4 4 mph 1017.2mb 61f 61f
12:50pm 6ft 9s 8s 4 4 mph 1017.6mb 60f 61f
11:50am 6ft 10s 8s 4 4 mph 1018mb 60f 60f
10:50am 5.5ft 10s 8s 2 4 mph 1017.9mb 59f 60f
9:50am 6ft 16s 9s 4 7 mph 1017.3mb 59f 60f
8:50am 6ft 8s 8s 7 9 mph 1016.8mb 59f 60f
7:50am 6ft 10s 9s 7 9 mph 1016.3mb 59f 60f
6:50am 6ft 10s 9s 4 9 mph 1015.9mb 59f 60f
5:50am 6ft 10s 8s 4 7 mph 1015.4mb 60f 60f
4:50am 6ft 10s 8s 2 7 mph 1015.2mb 60f 60f
3:50am 6.5ft 9s 8s 2 7 mph 1015.2mb 60f 60f
2:50am 6ft 10s 8s 2 4 mph 1015.5mb 60f 61f
1:50am 6.5ft 10s 8s 4 7 mph 1015.8mb 60f 61f
12:50am 6ft 9s 8s 4 7 mph 1016mb 60f 61f
Wed 08/16 11:50pm 6.5ft 10s 8s 2 4 mph 1015.8mb 60f 61f
10:50pm 6.5ft 9s 8s 2 4 mph 1015.9mb 60f 61f
9:50pm 6ft 10s 8s 2 4 mph 1015.8mb 60f 61f
8:50pm 6ft 9s 8s 2 4 mph 1015.1mb 60f 60f
7:50pm 7ft 10s 8s 4 7 mph 1014.8mb 61f 60f
6:50pm 5.5ft 10s 8s 4 4 mph 1014.7mb 61f 60f
5:50pm 6ft 10s 8s 7 7 mph 1014.9mb 61f 60f
4:50pm 5ft 9s 8s 7 7 mph 1015.2mb 61f 60f
3:50pm 5ft 9s 7s 7 7 mph 1015.2mb 62f 61f
2:50pm 5.5ft 9s 7s 4 4 mph 1015.7mb 62f 62f
1:50pm 4.5ft 8s 7s 2 4 mph 1016mb 62f 62f
12:50pm 5ft 8s 7s  -  2 mph 1016.1mb 60f 62f
11:50am 5ft 15s 7s 2 2 mph 1016.1mb 59f 61f
10:50am 4.5ft 9s 7s  -  2 mph 1016mb 59f 60f
9:50am 4.5ft 9s 7s 2 2 mph 1015.9mb 59f 60f
8:50am 4.5ft 10s 7s 2 2 mph 1015.5mb 59f 60f
7:50am 4.5ft 10s 7s  -  2 mph 1015.2mb 59f 60f
6:50am 4.5ft 9s 7s 2 4 mph 1014.7mb 59f 60f
5:50am 4.5ft 10s 7s 4 4 mph 1014.3mb 59f 60f
4:50am 4.5ft 10s 7s  -  0 mph 1014mb 59f 60f
3:50am 4.5ft 10s 7s 2 2 mph 1014.2mb 59f 59f
2:50am 5ft 9s 7s  -  0 mph 1014.3mb 59f 59f
1:50am 5ft 8s 7s  -  2 mph 1014.3mb 59f 59f
12:50am 5ft 7s 7s  -  mph 1014.5mb 59f 59f
Tue 08/15 11:50pm 5ft 10s 7s  -  mph 1014.3mb 59f 59f
10:50pm 5.5ft 10s 7s  -  mph 1014.3mb 59f 59f
3:50pm 4.5ft 10s 9s  -  mph - 60f 62f
2:50pm 6ft 10s 7s  -  mph 1013.7mb 59f 60f
1:50pm 6ft 10s 7s  -  mph 1013.9mb 59f 60f
12:50pm 6ft 9s 6s  -  mph 1013.9mb 59f 60f
11:50am 6.5ft 9s 7s  -  mph 1013.9mb 59f 60f
10:50am 6ft 9s 7s  -  mph 1013.8mb 58f 60f
9:50am 5.5ft 9s 6s  -  mph 1013.5mb 58f 59f
8:50am 6ft 9s 7s  -  mph 1013.1mb 58f 60f
7:50am 6ft 8s 7s  -  mph 1012.7mb 58f 60f
6:50am 6ft 9s 7s  -  mph 1012mb 58f 60f
5:50am 5.5ft 8s 7s  -  mph 1011.6mb 58f 60f
4:50am 6ft 10s 7s  -  mph 1011.5mb 58f 60f
3:50am 5.5ft 9s 7s  -  mph 1011.7mb 58f 60f
2:50am 5.5ft 9s 7s  -  mph 1011.7mb 58f 60f